sensor_id;sensor_type;location;lat;lon;timestamp;P1;durP1;ratioP1;P2;durP2;ratioP2
21886;SDS011;11108;49.988;8.182;2023-05-07T00:02:17;1.00;;;1.00;;
21886;SDS011;11108;49.988;8.182;2023-05-07T00:04:42;1.10;;;1.10;;
21886;SDS011;11108;49.988;8.182;2023-05-07T00:07:09;1.20;;;1.20;;
21886;SDS011;11108;49.988;8.182;2023-05-07T00:09:34;1.40;;;1.30;;
21886;SDS011;11108;49.988;8.182;2023-05-07T00:11:59;0.87;;;0.87;;
21886;SDS011;11108;49.988;8.182;2023-05-07T00:14:24;0.93;;;0.93;;
21886;SDS011;11108;49.988;8.182;2023-05-07T00:16:50;1.70;;;1.23;;
21886;SDS011;11108;49.988;8.182;2023-05-07T00:19:15;1.20;;;1.10;;
21886;SDS011;11108;49.988;8.182;2023-05-07T00:21:40;1.33;;;1.20;;
21886;SDS011;11108;49.988;8.182;2023-05-07T00:24:05;1.90;;;1.00;;
21886;SDS011;11108;49.988;8.182;2023-05-07T00:26:31;1.00;;;1.00;;
21886;SDS011;11108;49.988;8.182;2023-05-07T00:28:56;1.20;;;1.20;;
21886;SDS011;11108;49.988;8.182;2023-05-07T00:31:21;1.67;;;1.50;;
21886;SDS011;11108;49.988;8.182;2023-05-07T00:33:46;1.47;;;1.37;;
21886;SDS011;11108;49.988;8.182;2023-05-07T00:36:11;1.00;;;1.00;;
21886;SDS011;11108;49.988;8.182;2023-05-07T00:38:37;1.50;;;1.40;;
21886;SDS011;11108;49.988;8.182;2023-05-07T00:41:02;1.37;;;1.07;;
21886;SDS011;11108;49.988;8.182;2023-05-07T00:43:27;1.10;;;1.10;;
21886;SDS011;11108;49.988;8.182;2023-05-07T00:45:52;1.07;;;1.00;;
21886;SDS011;11108;49.988;8.182;2023-05-07T00:48:17;1.70;;;0.93;;
21886;SDS011;11108;49.988;8.182;2023-05-07T00:50:43;1.10;;;1.10;;
21886;SDS011;11108;49.988;8.182;2023-05-07T00:53:09;1.63;;;1.20;;
21886;SDS011;11108;49.988;8.182;2023-05-07T00:55:34;1.00;;;1.00;;
21886;SDS011;11108;49.988;8.182;2023-05-07T00:58:00;1.00;;;1.00;;
21886;SDS011;11108;49.988;8.182;2023-05-07T01:00:25;0.90;;;0.90;;
21886;SDS011;11108;49.988;8.182;2023-05-07T01:02:50;2.30;;;1.40;;
21886;SDS011;11108;49.988;8.182;2023-05-07T01:05:17;1.00;;;1.00;;
21886;SDS011;11108;49.988;8.182;2023-05-07T01:07:42;1.03;;;1.03;;
21886;SDS011;11108;49.988;8.182;2023-05-07T01:10:08;1.27;;;1.10;;
21886;SDS011;11108;49.988;8.182;2023-05-07T01:12:34;1.17;;;1.07;;
21886;SDS011;11108;49.988;8.182;2023-05-07T01:15:00;0.80;;;0.80;;
21886;SDS011;11108;49.988;8.182;2023-05-07T01:17:25;0.90;;;0.90;;
21886;SDS011;11108;49.988;8.182;2023-05-07T01:19:51;1.10;;;1.10;;
21886;SDS011;11108;49.988;8.182;2023-05-07T01:22:23;1.77;;;1.40;;
21886;SDS011;11108;49.988;8.182;2023-05-07T01:24:51;1.23;;;1.10;;
21886;SDS011;11108;49.988;8.182;2023-05-07T01:27:16;0.90;;;0.90;;
21886;SDS011;11108;49.988;8.182;2023-05-07T01:29:41;1.63;;;1.40;;
21886;SDS011;11108;49.988;8.182;2023-05-07T01:32:07;1.17;;;1.17;;
21886;SDS011;11108;49.988;8.182;2023-05-07T01:34:32;1.20;;;1.20;;
21886;SDS011;11108;49.988;8.182;2023-05-07T01:36:58;1.03;;;1.03;;
21886;SDS011;11108;49.988;8.182;2023-05-07T01:39:24;1.37;;;1.27;;
21886;SDS011;11108;49.988;8.182;2023-05-07T01:41:50;1.00;;;1.00;;
21886;SDS011;11108;49.988;8.182;2023-05-07T01:44:15;1.33;;;1.23;;
21886;SDS011;11108;49.988;8.182;2023-05-07T01:46:41;0.93;;;0.93;;
21886;SDS011;11108;49.988;8.182;2023-05-07T01:49:06;0.90;;;0.90;;
21886;SDS011;11108;49.988;8.182;2023-05-07T01:51:32;0.90;;;0.90;;
21886;SDS011;11108;49.988;8.182;2023-05-07T01:53:58;1.10;;;1.10;;
21886;SDS011;11108;49.988;8.182;2023-05-07T01:56:23;1.20;;;1.10;;
21886;SDS011;11108;49.988;8.182;2023-05-07T01:58:48;0.90;;;0.90;;
21886;SDS011;11108;49.988;8.182;2023-05-07T02:01:16;1.10;;;1.10;;
21886;SDS011;11108;49.988;8.182;2023-05-07T02:03:41;1.33;;;1.00;;
21886;SDS011;11108;49.988;8.182;2023-05-07T02:06:06;1.40;;;1.30;;
21886;SDS011;11108;49.988;8.182;2023-05-07T02:08:31;1.17;;;1.10;;
21886;SDS011;11108;49.988;8.182;2023-05-07T02:10:56;1.13;;;1.13;;
21886;SDS011;11108;49.988;8.182;2023-05-07T02:13:22;1.00;;;1.00;;
21886;SDS011;11108;49.988;8.182;2023-05-07T02:15:47;1.00;;;1.00;;
21886;SDS011;11108;49.988;8.182;2023-05-07T02:18:15;1.07;;;1.00;;
21886;SDS011;11108;49.988;8.182;2023-05-07T02:20:40;0.90;;;0.90;;
21886;SDS011;11108;49.988;8.182;2023-05-07T02:23:06;1.00;;;1.00;;
21886;SDS011;11108;49.988;8.182;2023-05-07T02:25:31;1.10;;;1.10;;
21886;SDS011;11108;49.988;8.182;2023-05-07T02:27:56;1.30;;;1.30;;
21886;SDS011;11108;49.988;8.182;2023-05-07T02:30:21;1.00;;;1.00;;
21886;SDS011;11108;49.988;8.182;2023-05-07T02:32:46;0.97;;;0.97;;
21886;SDS011;11108;49.988;8.182;2023-05-07T02:35:12;1.20;;;0.97;;
21886;SDS011;11108;49.988;8.182;2023-05-07T02:37:37;1.40;;;1.30;;
21886;SDS011;11108;49.988;8.182;2023-05-07T02:40:02;1.30;;;1.30;;
21886;SDS011;11108;49.988;8.182;2023-05-07T02:42:29;1.17;;;1.07;;
21886;SDS011;11108;49.988;8.182;2023-05-07T02:44:54;0.90;;;0.90;;
21886;SDS011;11108;49.988;8.182;2023-05-07T02:47:19;1.33;;;1.23;;
21886;SDS011;11108;49.988;8.182;2023-05-07T02:49:44;1.10;;;1.10;;
21886;SDS011;11108;49.988;8.182;2023-05-07T02:52:10;1.03;;;1.03;;
21886;SDS011;11108;49.988;8.182;2023-05-07T02:54:35;1.30;;;1.20;;
21886;SDS011;11108;49.988;8.182;2023-05-07T02:57:00;0.90;;;0.90;;
21886;SDS011;11108;49.988;8.182;2023-05-07T02:59:28;1.27;;;1.17;;
21886;SDS011;11108;49.988;8.182;2023-05-07T03:01:53;1.20;;;1.20;;
21886;SDS011;11108;49.988;8.182;2023-05-07T03:04:19;1.00;;;1.00;;
21886;SDS011;11108;49.988;8.182;2023-05-07T03:06:44;1.43;;;1.10;;
21886;SDS011;11108;49.988;8.182;2023-05-07T03:09:09;1.10;;;1.10;;
21886;SDS011;11108;49.988;8.182;2023-05-07T03:11:34;0.90;;;0.90;;
21886;SDS011;11108;49.988;8.182;2023-05-07T03:14:00;1.03;;;1.00;;
21886;SDS011;11108;49.988;8.182;2023-05-07T03:16:25;1.13;;;1.03;;
21886;SDS011;11108;49.988;8.182;2023-05-07T03:18:51;1.50;;;1.30;;
21886;SDS011;11108;49.988;8.182;2023-05-07T03:21:17;0.80;;;0.80;;
21886;SDS011;11108;49.988;8.182;2023-05-07T03:23:42;1.33;;;1.23;;
21886;SDS011;11108;49.988;8.182;2023-05-07T03:26:08;0.90;;;0.90;;
21886;SDS011;11108;49.988;8.182;2023-05-07T03:28:33;1.00;;;0.93;;
21886;SDS011;11108;49.988;8.182;2023-05-07T03:30:58;1.40;;;1.30;;
21886;SDS011;11108;49.988;8.182;2023-05-07T03:33:23;1.10;;;1.10;;
21886;SDS011;11108;49.988;8.182;2023-05-07T03:35:48;1.63;;;1.10;;
21886;SDS011;11108;49.988;8.182;2023-05-07T03:38:14;1.43;;;1.07;;
21886;SDS011;11108;49.988;8.182;2023-05-07T03:40:39;1.03;;;1.03;;
21886;SDS011;11108;49.988;8.182;2023-05-07T03:43:04;1.03;;;1.03;;
21886;SDS011;11108;49.988;8.182;2023-05-07T03:45:30;1.20;;;1.10;;
21886;SDS011;11108;49.988;8.182;2023-05-07T03:47:55;1.40;;;1.30;;
21886;SDS011;11108;49.988;8.182;2023-05-07T03:50:20;1.33;;;1.23;;
21886;SDS011;11108;49.988;8.182;2023-05-07T03:52:45;1.20;;;1.20;;
21886;SDS011;11108;49.988;8.182;2023-05-07T03:55:10;1.00;;;1.00;;
21886;SDS011;11108;49.988;8.182;2023-05-07T03:57:36;1.03;;;1.00;;
21886;SDS011;11108;49.988;8.182;2023-05-07T04:00:01;0.97;;;0.97;;
21886;SDS011;11108;49.988;8.182;2023-05-07T04:02:27;2.57;;;1.43;;
21886;SDS011;11108;49.988;8.182;2023-05-07T04:04:52;1.47;;;0.80;;
21886;SDS011;11108;49.988;8.182;2023-05-07T04:07:17;1.33;;;1.23;;
21886;SDS011;11108;49.988;8.182;2023-05-07T04:09:42;1.30;;;1.20;;
21886;SDS011;11108;49.988;8.182;2023-05-07T04:12:07;0.83;;;0.83;;
21886;SDS011;11108;49.988;8.182;2023-05-07T04:14:32;1.20;;;1.20;;
21886;SDS011;11108;49.988;8.182;2023-05-07T04:16:58;1.60;;;1.30;;
21886;SDS011;11108;49.988;8.182;2023-05-07T04:19:24;1.73;;;1.00;;
21886;SDS011;11108;49.988;8.182;2023-05-07T04:21:49;1.07;;;1.07;;
21886;SDS011;11108;49.988;8.182;2023-05-07T04:24:14;1.10;;;1.10;;
21886;SDS011;11108;49.988;8.182;2023-05-07T04:26:40;1.13;;;1.10;;
21886;SDS011;11108;49.988;8.182;2023-05-07T04:29:05;1.17;;;1.10;;
21886;SDS011;11108;49.988;8.182;2023-05-07T04:31:30;1.00;;;1.00;;
21886;SDS011;11108;49.988;8.182;2023-05-07T04:33:56;0.90;;;0.90;;
21886;SDS011;11108;49.988;8.182;2023-05-07T04:36:22;1.30;;;1.20;;
21886;SDS011;11108;49.988;8.182;2023-05-07T04:38:47;1.20;;;1.10;;
21886;SDS011;11108;49.988;8.182;2023-05-07T04:41:12;1.00;;;1.00;;
21886;SDS011;11108;49.988;8.182;2023-05-07T04:43:37;1.27;;;1.20;;
21886;SDS011;11108;49.988;8.182;2023-05-07T04:46:02;0.97;;;0.90;;
21886;SDS011;11108;49.988;8.182;2023-05-07T04:48:28;1.10;;;1.10;;
21886;SDS011;11108;49.988;8.182;2023-05-07T04:50:54;1.23;;;1.13;;
21886;SDS011;11108;49.988;8.182;2023-05-07T04:53:19;2.17;;;1.20;;
21886;SDS011;11108;49.988;8.182;2023-05-07T04:55:44;1.17;;;0.87;;
21886;SDS011;11108;49.988;8.182;2023-05-07T04:58:10;1.10;;;1.10;;
21886;SDS011;11108;49.988;8.182;2023-05-07T05:00:35;1.10;;;1.10;;
21886;SDS011;11108;49.988;8.182;2023-05-07T05:03:00;0.97;;;0.97;;
21886;SDS011;11108;49.988;8.182;2023-05-07T05:05:26;0.90;;;0.90;;
21886;SDS011;11108;49.988;8.182;2023-05-07T05:07:51;1.47;;;1.00;;
21886;SDS011;11108;49.988;8.182;2023-05-07T05:10:16;1.00;;;1.00;;
21886;SDS011;11108;49.988;8.182;2023-05-07T05:12:42;1.33;;;1.27;;
21886;SDS011;11108;49.988;8.182;2023-05-07T05:15:07;1.40;;;1.30;;
21886;SDS011;11108;49.988;8.182;2023-05-07T05:17:33;1.10;;;1.10;;
21886;SDS011;11108;49.988;8.182;2023-05-07T05:19:59;0.97;;;0.97;;
21886;SDS011;11108;49.988;8.182;2023-05-07T05:22:25;0.87;;;0.87;;
21886;SDS011;11108;49.988;8.182;2023-05-07T05:24:50;1.10;;;1.10;;
21886;SDS011;11108;49.988;8.182;2023-05-07T05:27:15;1.00;;;1.00;;
21886;SDS011;11108;49.988;8.182;2023-05-07T05:29:41;0.90;;;0.90;;
21886;SDS011;11108;49.988;8.182;2023-05-07T05:32:06;3.13;;;1.10;;
21886;SDS011;11108;49.988;8.182;2023-05-07T05:34:31;1.10;;;1.10;;
21886;SDS011;11108;49.988;8.182;2023-05-07T05:36:58;1.40;;;1.10;;
21886;SDS011;11108;49.988;8.182;2023-05-07T05:39:24;1.37;;;0.93;;
21886;SDS011;11108;49.988;8.182;2023-05-07T05:41:49;1.00;;;1.00;;
21886;SDS011;11108;49.988;8.182;2023-05-07T05:44:14;1.40;;;1.30;;
21886;SDS011;11108;49.988;8.182;2023-05-07T05:46:39;1.30;;;1.20;;
21886;SDS011;11108;49.988;8.182;2023-05-07T05:49:05;1.00;;;1.00;;
21886;SDS011;11108;49.988;8.182;2023-05-07T05:51:30;1.30;;;1.10;;
21886;SDS011;11108;49.988;8.182;2023-05-07T05:53:55;0.80;;;0.80;;
21886;SDS011;11108;49.988;8.182;2023-05-07T05:56:20;1.10;;;1.00;;
21886;SDS011;11108;49.988;8.182;2023-05-07T05:58:46;0.87;;;0.87;;
21886;SDS011;11108;49.988;8.182;2023-05-07T06:01:11;1.30;;;1.20;;
21886;SDS011;11108;49.988;8.182;2023-05-07T06:03:36;1.10;;;1.10;;
21886;SDS011;11108;49.988;8.182;2023-05-07T06:06:02;1.10;;;1.10;;
21886;SDS011;11108;49.988;8.182;2023-05-07T06:08:30;1.10;;;0.90;;
21886;SDS011;11108;49.988;8.182;2023-05-07T06:10:55;1.63;;;1.30;;
21886;SDS011;11108;49.988;8.182;2023-05-07T06:13:21;0.90;;;0.90;;
21886;SDS011;11108;49.988;8.182;2023-05-07T06:15:46;1.20;;;1.10;;
21886;SDS011;11108;49.988;8.182;2023-05-07T06:18:11;2.00;;;1.30;;
21886;SDS011;11108;49.988;8.182;2023-05-07T06:20:36;1.80;;;1.10;;
21886;SDS011;11108;49.988;8.182;2023-05-07T06:23:01;1.07;;;1.00;;
21886;SDS011;11108;49.988;8.182;2023-05-07T06:25:27;0.90;;;0.90;;
21886;SDS011;11108;49.988;8.182;2023-05-07T06:27:52;1.00;;;1.00;;
21886;SDS011;11108;49.988;8.182;2023-05-07T06:30:17;1.10;;;1.00;;
21886;SDS011;11108;49.988;8.182;2023-05-07T06:32:42;1.87;;;1.10;;
21886;SDS011;11108;49.988;8.182;2023-05-07T06:35:07;1.00;;;1.00;;
21886;SDS011;11108;49.988;8.182;2023-05-07T06:37:33;1.80;;;1.13;;
21886;SDS011;11108;49.988;8.182;2023-05-07T06:39:58;1.00;;;1.00;;
21886;SDS011;11108;49.988;8.182;2023-05-07T06:42:23;1.23;;;1.23;;
21886;SDS011;11108;49.988;8.182;2023-05-07T06:44:48;1.97;;;1.20;;
21886;SDS011;11108;49.988;8.182;2023-05-07T06:47:14;1.53;;;1.20;;
21886;SDS011;11108;49.988;8.182;2023-05-07T06:49:39;1.40;;;1.00;;
21886;SDS011;11108;49.988;8.182;2023-05-07T06:52:04;1.33;;;1.20;;
21886;SDS011;11108;49.988;8.182;2023-05-07T06:54:29;1.10;;;1.10;;
21886;SDS011;11108;49.988;8.182;2023-05-07T06:56:54;1.20;;;1.10;;
21886;SDS011;11108;49.988;8.182;2023-05-07T06:59:20;1.20;;;1.20;;
21886;SDS011;11108;49.988;8.182;2023-05-07T07:01:45;1.07;;;1.07;;
21886;SDS011;11108;49.988;8.182;2023-05-07T07:04:10;1.17;;;1.17;;
21886;SDS011;11108;49.988;8.182;2023-05-07T07:06:35;1.10;;;1.10;;
21886;SDS011;11108;49.988;8.182;2023-05-07T07:09:00;1.30;;;1.20;;
21886;SDS011;11108;49.988;8.182;2023-05-07T07:11:26;1.30;;;1.00;;
21886;SDS011;11108;49.988;8.182;2023-05-07T07:13:51;1.10;;;1.10;;
21886;SDS011;11108;49.988;8.182;2023-05-07T07:16:16;1.43;;;1.43;;
21886;SDS011;11108;49.988;8.182;2023-05-07T07:18:42;1.00;;;1.00;;
21886;SDS011;11108;49.988;8.182;2023-05-07T07:21:07;1.00;;;1.00;;
21886;SDS011;11108;49.988;8.182;2023-05-07T07:23:32;1.00;;;1.00;;
21886;SDS011;11108;49.988;8.182;2023-05-07T07:25:57;0.83;;;0.83;;
21886;SDS011;11108;49.988;8.182;2023-05-07T07:28:22;1.10;;;1.10;;
21886;SDS011;11108;49.988;8.182;2023-05-07T07:30:48;0.90;;;0.90;;
21886;SDS011;11108;49.988;8.182;2023-05-07T07:33:13;1.00;;;0.97;;
21886;SDS011;11108;49.988;8.182;2023-05-07T07:35:39;1.20;;;1.20;;
21886;SDS011;11108;49.988;8.182;2023-05-07T07:38:04;3.23;;;1.87;;
21886;SDS011;11108;49.988;8.182;2023-05-07T07:40:29;4.60;;;1.77;;
21886;SDS011;11108;49.988;8.182;2023-05-07T07:42:54;1.90;;;1.70;;
21886;SDS011;11108;49.988;8.182;2023-05-07T07:45:20;2.83;;;1.57;;
21886;SDS011;11108;49.988;8.182;2023-05-07T07:47:45;2.07;;;1.50;;
21886;SDS011;11108;49.988;8.182;2023-05-07T07:50:10;1.60;;;1.50;;
21886;SDS011;11108;49.988;8.182;2023-05-07T07:52:35;2.40;;;1.30;;
21886;SDS011;11108;49.988;8.182;2023-05-07T07:55:01;2.70;;;1.57;;
21886;SDS011;11108;49.988;8.182;2023-05-07T07:57:26;1.30;;;1.20;;
21886;SDS011;11108;49.988;8.182;2023-05-07T07:59:52;1.37;;;1.23;;
21886;SDS011;11108;49.988;8.182;2023-05-07T08:02:17;1.60;;;1.03;;
21886;SDS011;11108;49.988;8.182;2023-05-07T08:04:42;2.20;;;1.30;;
21886;SDS011;11108;49.988;8.182;2023-05-07T08:07:10;5.60;;;1.80;;
21886;SDS011;11108;49.988;8.182;2023-05-07T08:09:36;15.57;;;4.10;;
21886;SDS011;11108;49.988;8.182;2023-05-07T08:12:02;7.67;;;2.53;;
21886;SDS011;11108;49.988;8.182;2023-05-07T08:14:27;19.77;;;3.77;;
21886;SDS011;11108;49.988;8.182;2023-05-07T08:16:53;7.73;;;3.80;;
21886;SDS011;11108;49.988;8.182;2023-05-07T08:19:18;8.37;;;3.63;;
21886;SDS011;11108;49.988;8.182;2023-05-07T08:21:44;15.10;;;4.03;;
21886;SDS011;11108;49.988;8.182;2023-05-07T08:24:09;12.37;;;3.80;;
21886;SDS011;11108;49.988;8.182;2023-05-07T08:26:35;11.20;;;4.20;;
21886;SDS011;11108;49.988;8.182;2023-05-07T08:29:00;13.17;;;3.77;;
21886;SDS011;11108;49.988;8.182;2023-05-07T08:31:26;14.50;;;4.53;;
21886;SDS011;11108;49.988;8.182;2023-05-07T08:33:51;12.77;;;3.83;;
21886;SDS011;11108;49.988;8.182;2023-05-07T08:36:16;9.57;;;4.30;;
21886;SDS011;11108;49.988;8.182;2023-05-07T08:38:44;9.63;;;4.57;;
21886;SDS011;11108;49.988;8.182;2023-05-07T08:41:10;14.10;;;4.13;;
21886;SDS011;11108;49.988;8.182;2023-05-07T08:43:36;8.73;;;3.90;;
21886;SDS011;11108;49.988;8.182;2023-05-07T08:46:02;9.97;;;3.87;;
21886;SDS011;11108;49.988;8.182;2023-05-07T08:48:29;10.73;;;4.17;;
21886;SDS011;11108;49.988;8.182;2023-05-07T08:50:57;9.37;;;4.27;;
21886;SDS011;11108;49.988;8.182;2023-05-07T08:53:23;11.00;;;4.43;;
21886;SDS011;11108;49.988;8.182;2023-05-07T08:55:48;10.63;;;3.33;;
21886;SDS011;11108;49.988;8.182;2023-05-07T08:58:13;5.90;;;3.73;;
21886;SDS011;11108;49.988;8.182;2023-05-07T09:00:39;7.57;;;4.00;;
21886;SDS011;11108;49.988;8.182;2023-05-07T09:03:05;8.97;;;3.70;;
21886;SDS011;11108;49.988;8.182;2023-05-07T09:05:30;8.00;;;3.63;;
21886;SDS011;11108;49.988;8.182;2023-05-07T09:07:58;9.57;;;3.17;;
21886;SDS011;11108;49.988;8.182;2023-05-07T09:10:23;8.40;;;3.67;;
21886;SDS011;11108;49.988;8.182;2023-05-07T09:12:48;8.50;;;3.30;;
21886;SDS011;11108;49.988;8.182;2023-05-07T09:15:14;6.60;;;3.23;;
21886;SDS011;11108;49.988;8.182;2023-05-07T09:17:39;7.60;;;3.10;;
21886;SDS011;11108;49.988;8.182;2023-05-07T09:20:06;5.33;;;2.83;;
21886;SDS011;11108;49.988;8.182;2023-05-07T09:22:32;6.50;;;2.93;;
21886;SDS011;11108;49.988;8.182;2023-05-07T09:24:57;5.87;;;3.17;;
21886;SDS011;11108;49.988;8.182;2023-05-07T09:27:23;7.53;;;3.23;;
21886;SDS011;11108;49.988;8.182;2023-05-07T09:29:48;5.63;;;3.17;;
21886;SDS011;11108;49.988;8.182;2023-05-07T09:32:13;4.50;;;2.70;;
21886;SDS011;11108;49.988;8.182;2023-05-07T09:34:39;4.20;;;2.63;;
21886;SDS011;11108;49.988;8.182;2023-05-07T09:37:06;6.27;;;2.80;;
21886;SDS011;11108;49.988;8.182;2023-05-07T09:39:38;5.53;;;3.10;;
21886;SDS011;11108;49.988;8.182;2023-05-07T09:42:04;6.20;;;3.10;;
21886;SDS011;11108;49.988;8.182;2023-05-07T09:44:31;6.73;;;2.70;;
21886;SDS011;11108;49.988;8.182;2023-05-07T09:46:56;4.07;;;2.73;;
21886;SDS011;11108;49.988;8.182;2023-05-07T09:49:23;4.60;;;2.63;;
21886;SDS011;11108;49.988;8.182;2023-05-07T09:51:51;5.60;;;2.70;;
21886;SDS011;11108;49.988;8.182;2023-05-07T09:54:18;3.67;;;2.53;;
21886;SDS011;11108;49.988;8.182;2023-05-07T09:56:44;2.93;;;2.50;;
21886;SDS011;11108;49.988;8.182;2023-05-07T09:59:13;3.67;;;2.30;;
21886;SDS011;11108;49.988;8.182;2023-05-07T10:01:39;5.27;;;2.70;;
21886;SDS011;11108;49.988;8.182;2023-05-07T10:04:05;4.80;;;2.47;;
21886;SDS011;11108;49.988;8.182;2023-05-07T10:06:33;5.27;;;2.30;;
21886;SDS011;11108;49.988;8.182;2023-05-07T10:08:59;2.60;;;2.40;;
21886;SDS011;11108;49.988;8.182;2023-05-07T10:11:24;6.00;;;2.50;;
21886;SDS011;11108;49.988;8.182;2023-05-07T10:13:49;3.87;;;2.20;;
21886;SDS011;11108;49.988;8.182;2023-05-07T10:16:14;3.00;;;2.30;;
21886;SDS011;11108;49.988;8.182;2023-05-07T10:18:40;3.80;;;2.50;;
21886;SDS011;11108;49.988;8.182;2023-05-07T10:21:18;3.53;;;2.33;;
21886;SDS011;11108;49.988;8.182;2023-05-07T10:23:57;2.60;;;2.40;;
21886;SDS011;11108;49.988;8.182;2023-05-07T10:26:23;2.27;;;2.00;;
21886;SDS011;11108;49.988;8.182;2023-05-07T10:28:50;2.60;;;2.40;;
21886;SDS011;11108;49.988;8.182;2023-05-07T10:33:43;2.23;;;2.03;;
21886;SDS011;11108;49.988;8.182;2023-05-07T10:36:10;2.43;;;2.10;;
21886;SDS011;11108;49.988;8.182;2023-05-07T10:38:35;3.23;;;2.10;;
21886;SDS011;11108;49.988;8.182;2023-05-07T10:41:01;3.13;;;2.30;;
21886;SDS011;11108;49.988;8.182;2023-05-07T10:43:29;2.60;;;2.37;;
21886;SDS011;11108;49.988;8.182;2023-05-07T10:46:09;2.97;;;2.27;;
21886;SDS011;11108;49.988;8.182;2023-05-07T10:48:34;2.23;;;2.00;;
21886;SDS011;11108;49.988;8.182;2023-05-07T10:51:22;2.50;;;2.30;;
21886;SDS011;11108;49.988;8.182;2023-05-07T10:53:48;2.80;;;2.00;;
21886;SDS011;11108;49.988;8.182;2023-05-07T10:58:41;2.57;;;2.37;;
21886;SDS011;11108;49.988;8.182;2023-05-07T11:01:06;3.90;;;2.00;;
21886;SDS011;11108;49.988;8.182;2023-05-07T11:03:31;1.90;;;1.80;;
21886;SDS011;11108;49.988;8.182;2023-05-07T11:09:08;2.27;;;2.07;;
21886;SDS011;11108;49.988;8.182;2023-05-07T11:14:11;2.10;;;1.90;;
21886;SDS011;11108;49.988;8.182;2023-05-07T11:16:36;4.17;;;2.30;;
21886;SDS011;11108;49.988;8.182;2023-05-07T11:19:03;1.83;;;1.73;;
21886;SDS011;11108;49.988;8.182;2023-05-07T11:21:32;2.40;;;2.20;;
21886;SDS011;11108;49.988;8.182;2023-05-07T11:23:57;2.57;;;1.80;;
21886;SDS011;11108;49.988;8.182;2023-05-07T11:26:23;1.80;;;1.70;;
21886;SDS011;11108;49.988;8.182;2023-05-07T11:28:48;2.70;;;1.70;;
21886;SDS011;11108;49.988;8.182;2023-05-07T11:31:13;2.40;;;2.27;;
21886;SDS011;11108;49.988;8.182;2023-05-07T11:33:38;2.20;;;2.00;;
21886;SDS011;11108;49.988;8.182;2023-05-07T11:36:04;2.90;;;2.03;;
21886;SDS011;11108;49.988;8.182;2023-05-07T11:38:30;2.37;;;2.17;;
21886;SDS011;11108;49.988;8.182;2023-05-07T11:40:59;1.93;;;1.83;;
21886;SDS011;11108;49.988;8.182;2023-05-07T11:43:27;2.47;;;1.93;;
21886;SDS011;11108;49.988;8.182;2023-05-07T11:45:52;2.20;;;2.00;;
21886;SDS011;11108;49.988;8.182;2023-05-07T11:48:18;3.53;;;1.93;;
21886;SDS011;11108;49.988;8.182;2023-05-07T11:50:53;3.50;;;2.30;;
21886;SDS011;11108;49.988;8.182;2023-05-07T11:53:19;2.87;;;2.10;;
21886;SDS011;11108;49.988;8.182;2023-05-07T11:55:45;2.53;;;1.93;;
21886;SDS011;11108;49.988;8.182;2023-05-07T11:58:12;2.10;;;1.90;;
21886;SDS011;11108;49.988;8.182;2023-05-07T12:00:37;2.53;;;1.77;;
21886;SDS011;11108;49.988;8.182;2023-05-07T12:03:05;2.90;;;2.27;;
21886;SDS011;11108;49.988;8.182;2023-05-07T12:05:31;2.17;;;2.07;;
21886;SDS011;11108;49.988;8.182;2023-05-07T12:07:56;2.23;;;2.13;;
21886;SDS011;11108;49.988;8.182;2023-05-07T12:10:22;2.30;;;2.20;;
21886;SDS011;11108;49.988;8.182;2023-05-07T12:12:47;3.40;;;2.43;;
21886;SDS011;11108;49.988;8.182;2023-05-07T12:15:15;2.60;;;2.17;;
21886;SDS011;11108;49.988;8.182;2023-05-07T12:17:40;2.17;;;1.90;;
21886;SDS011;11108;49.988;8.182;2023-05-07T12:20:06;2.40;;;2.30;;
21886;SDS011;11108;49.988;8.182;2023-05-07T12:22:32;1.90;;;1.80;;
21886;SDS011;11108;49.988;8.182;2023-05-07T12:24:57;2.00;;;1.90;;
21886;SDS011;11108;49.988;8.182;2023-05-07T12:27:23;1.93;;;1.83;;
21886;SDS011;11108;49.988;8.182;2023-05-07T12:29:49;2.30;;;2.10;;
21886;SDS011;11108;49.988;8.182;2023-05-07T12:32:15;2.23;;;2.03;;
21886;SDS011;11108;49.988;8.182;2023-05-07T12:34:40;2.13;;;2.00;;
21886;SDS011;11108;49.988;8.182;2023-05-07T12:37:06;2.47;;;2.00;;
21886;SDS011;11108;49.988;8.182;2023-05-07T12:39:31;2.00;;;1.90;;
21886;SDS011;11108;49.988;8.182;2023-05-07T12:41:58;2.50;;;2.30;;
21886;SDS011;11108;49.988;8.182;2023-05-07T12:44:23;2.07;;;1.97;;
21886;SDS011;11108;49.988;8.182;2023-05-07T12:46:49;1.90;;;1.80;;
21886;SDS011;11108;49.988;8.182;2023-05-07T12:49:14;2.33;;;2.03;;
21886;SDS011;11108;49.988;8.182;2023-05-07T12:51:39;1.83;;;1.73;;
21886;SDS011;11108;49.988;8.182;2023-05-07T12:54:05;2.23;;;2.13;;
21886;SDS011;11108;49.988;8.182;2023-05-07T12:56:30;2.17;;;2.00;;
21886;SDS011;11108;49.988;8.182;2023-05-07T12:58:57;2.80;;;2.07;;
21886;SDS011;11108;49.988;8.182;2023-05-07T13:01:22;2.87;;;2.00;;
21886;SDS011;11108;49.988;8.182;2023-05-07T13:03:53;2.40;;;2.30;;
21886;SDS011;11108;49.988;8.182;2023-05-07T13:06:18;2.17;;;2.03;;
21886;SDS011;11108;49.988;8.182;2023-05-07T13:08:44;1.77;;;1.77;;
21886;SDS011;11108;49.988;8.182;2023-05-07T13:11:09;3.97;;;1.83;;
21886;SDS011;11108;49.988;8.182;2023-05-07T13:13:35;2.10;;;1.97;;
21886;SDS011;11108;49.988;8.182;2023-05-07T13:16:01;3.27;;;1.97;;
21886;SDS011;11108;49.988;8.182;2023-05-07T13:18:27;3.33;;;2.73;;
21886;SDS011;11108;49.988;8.182;2023-05-07T13:20:52;7.83;;;4.40;;
21886;SDS011;11108;49.988;8.182;2023-05-07T13:23:18;5.17;;;4.50;;
21886;SDS011;11108;49.988;8.182;2023-05-07T13:25:43;5.30;;;4.70;;
21886;SDS011;11108;49.988;8.182;2023-05-07T13:28:08;4.70;;;4.27;;
21886;SDS011;11108;49.988;8.182;2023-05-07T13:30:33;4.93;;;3.80;;
21886;SDS011;11108;49.988;8.182;2023-05-07T13:32:59;4.67;;;3.83;;
21886;SDS011;11108;49.988;8.182;2023-05-07T13:35:24;5.20;;;3.90;;
21886;SDS011;11108;49.988;8.182;2023-05-07T13:37:50;4.33;;;3.40;;
21886;SDS011;11108;49.988;8.182;2023-05-07T13:40:17;3.00;;;2.80;;
21886;SDS011;11108;49.988;8.182;2023-05-07T13:42:42;3.00;;;2.70;;
21886;SDS011;11108;49.988;8.182;2023-05-07T13:45:07;3.53;;;3.33;;
21886;SDS011;11108;49.988;8.182;2023-05-07T13:47:33;3.23;;;2.97;;
21886;SDS011;11108;49.988;8.182;2023-05-07T13:49:58;4.67;;;3.00;;
21886;SDS011;11108;49.988;8.182;2023-05-07T13:52:23;4.17;;;2.90;;
21886;SDS011;11108;49.988;8.182;2023-05-07T13:54:48;2.70;;;2.40;;
21886;SDS011;11108;49.988;8.182;2023-05-07T13:57:13;4.50;;;2.77;;
21886;SDS011;11108;49.988;8.182;2023-05-07T13:59:39;2.80;;;2.60;;
21886;SDS011;11108;49.988;8.182;2023-05-07T14:02:04;3.03;;;2.60;;
21886;SDS011;11108;49.988;8.182;2023-05-07T14:04:30;2.50;;;2.40;;
21886;SDS011;11108;49.988;8.182;2023-05-07T14:06:55;3.27;;;2.20;;
21886;SDS011;11108;49.988;8.182;2023-05-07T14:09:20;2.93;;;2.63;;
21886;SDS011;11108;49.988;8.182;2023-05-07T14:11:46;2.50;;;2.30;;
21886;SDS011;11108;49.988;8.182;2023-05-07T14:14:12;2.93;;;2.50;;
21886;SDS011;11108;49.988;8.182;2023-05-07T14:16:37;2.37;;;2.17;;
21886;SDS011;11108;49.988;8.182;2023-05-07T14:19:02;4.03;;;2.27;;
21886;SDS011;11108;49.988;8.182;2023-05-07T14:21:28;2.93;;;2.30;;
21886;SDS011;11108;49.988;8.182;2023-05-07T14:23:53;2.37;;;2.27;;
21886;SDS011;11108;49.988;8.182;2023-05-07T14:26:18;2.17;;;1.97;;
21886;SDS011;11108;49.988;8.182;2023-05-07T14:28:44;4.50;;;2.50;;
21886;SDS011;11108;49.988;8.182;2023-05-07T14:31:11;2.90;;;2.10;;
21886;SDS011;11108;49.988;8.182;2023-05-07T14:33:36;2.77;;;2.07;;
21886;SDS011;11108;49.988;8.182;2023-05-07T14:36:01;2.40;;;2.17;;
21886;SDS011;11108;49.988;8.182;2023-05-07T14:38:27;2.00;;;1.87;;
21886;SDS011;11108;49.988;8.182;2023-05-07T14:40:52;3.00;;;2.10;;
21886;SDS011;11108;49.988;8.182;2023-05-07T14:43:20;2.13;;;2.03;;
21886;SDS011;11108;49.988;8.182;2023-05-07T14:45:45;2.20;;;2.00;;
21886;SDS011;11108;49.988;8.182;2023-05-07T14:48:11;2.50;;;2.07;;
21886;SDS011;11108;49.988;8.182;2023-05-07T14:50:40;2.20;;;2.00;;